createdAt,value
2022-08-23T00:00:22.656Z,48.67
2022-08-23T00:02:22.762Z,48.82
2022-08-23T00:03:22.677Z,48.75
2022-08-23T00:04:22.664Z,48.79
2022-08-23T00:05:22.659Z,48.71
2022-08-23T00:07:22.657Z,48.56
2022-08-23T00:08:22.663Z,48.58
2022-08-23T00:09:22.661Z,48.78
2022-08-23T00:10:22.702Z,48.79
2022-08-23T00:11:22.683Z,48.79
2022-08-23T00:12:22.669Z,48.71
2022-08-23T00:13:22.678Z,48.68
2022-08-23T00:15:22.725Z,48.79
2022-08-23T00:16:22.685Z,48.81
2022-08-23T00:17:33.862Z,48.91
2022-08-23T00:19:22.682Z,48.83
2022-08-23T00:23:22.703Z,48.99
2022-08-23T00:26:22.695Z,49.13
2022-08-23T00:27:22.703Z,49.22
2022-08-23T00:28:22.707Z,49.09
2022-08-23T00:29:22.732Z,49.16
2022-08-23T00:30:22.734Z,49.16
2022-08-23T00:31:22.736Z,49.51
2022-08-23T00:32:22.746Z,49.96
2022-08-23T00:34:22.726Z,50.20
2022-08-23T00:35:26.404Z,50.29
2022-08-23T00:36:22.750Z,50.33
2022-08-23T00:38:32.823Z,50.39
2022-08-23T00:39:22.757Z,50.36
2022-08-23T00:40:22.839Z,50.44
2022-08-23T00:41:22.776Z,50.40
2022-08-23T00:42:22.747Z,50.27
2022-08-23T00:43:22.771Z,50.22
2022-08-23T00:45:22.772Z,50.27
2022-08-23T00:46:22.763Z,50.26
2022-08-23T00:48:22.781Z,50.30
2022-08-23T00:49:22.770Z,50.38
2022-08-23T00:50:24.084Z,50.52
2022-08-23T00:51:22.781Z,50.56
2022-08-23T00:52:22.786Z,50.59
2022-08-23T00:53:22.782Z,50.71
2022-08-23T00:54:22.784Z,50.77
2022-08-23T00:55:22.797Z,50.80
2022-08-23T00:56:22.825Z,50.91
2022-08-23T00:58:22.799Z,51.06
2022-08-23T01:03:22.811Z,51.14
2022-08-23T01:04:22.800Z,51.15
2022-08-23T01:05:22.822Z,51.28
2022-08-23T01:06:22.821Z,51.39
2022-08-23T01:09:22.832Z,51.58
2022-08-23T01:13:22.846Z,51.83
2022-08-23T01:14:22.814Z,51.94
2022-08-23T01:15:22.841Z,52.21
2022-08-23T01:16:22.842Z,52.38
2022-08-23T01:17:22.850Z,52.57
2022-08-23T01:20:22.847Z,52.59
2022-08-23T01:21:22.905Z,52.60
2022-08-23T01:23:22.844Z,52.51
2022-08-23T01:24:48.024Z,52.51
2022-08-23T01:26:22.872Z,52.51
2022-08-23T01:28:22.868Z,52.62
2022-08-23T01:29:22.898Z,52.64
2022-08-23T01:30:22.884Z,52.69
2022-08-23T01:31:22.933Z,52.77
2022-08-23T01:32:22.877Z,52.77
2022-08-23T01:33:22.882Z,52.85
2022-08-23T01:34:22.882Z,52.79
2022-08-23T01:37:22.889Z,52.72
2022-08-23T01:39:22.893Z,52.75
2022-08-23T01:40:23.044Z,52.94
2022-08-23T01:42:22.927Z,53.11
2022-08-23T01:43:22.908Z,53.27
2022-08-23T01:44:22.920Z,53.55
2022-08-23T01:45:22.919Z,53.48
2022-08-23T01:46:22.934Z,53.50
2022-08-23T01:47:22.947Z,53.55
2022-08-23T01:49:22.921Z,53.52
2022-08-23T01:51:22.923Z,53.40
2022-08-23T01:52:22.966Z,53.33
2022-08-23T01:53:22.928Z,53.30
2022-08-23T01:54:22.959Z,53.33
2022-08-23T01:55:22.941Z,53.33
2022-08-23T01:56:27.653Z,53.24
2022-08-23T01:57:22.953Z,53.24
2022-08-23T01:58:22.952Z,53.25
2022-08-23T02:00:22.960Z,53.33
2022-08-23T02:01:23.015Z,53.27
2022-08-23T02:02:22.976Z,53.34
2022-08-23T02:03:22.964Z,53.35
2022-08-23T02:07:22.970Z,53.29
2022-08-23T02:08:22.989Z,53.27
2022-08-23T02:09:22.978Z,53.22
2022-08-23T02:10:22.986Z,53.16
2022-08-23T02:11:22.979Z,53.21
2022-08-23T02:12:22.994Z,53.20
2022-08-23T02:13:22.984Z,53.21
2022-08-23T02:14:22.991Z,53.33
2022-08-23T02:15:23.010Z,53.42
2022-08-23T02:16:22.986Z,53.42
2022-08-23T02:17:23.014Z,53.68
2022-08-23T02:18:22.994Z,53.68
2022-08-23T02:19:22.990Z,53.79
2022-08-23T02:20:22.997Z,53.83
2022-08-23T02:21:23.008Z,53.67
2022-08-23T02:22:23.026Z,53.71
2022-08-23T02:23:23.038Z,53.72
2022-08-23T02:24:23.016Z,53.82
2022-08-23T02:25:23.017Z,53.86
2022-08-23T02:26:31.225Z,53.93
2022-08-23T02:27:23.020Z,54.04
2022-08-23T02:28:23.118Z,54.06
2022-08-23T02:29:23.014Z,54.15
2022-08-23T02:30:23.040Z,54.14
2022-08-23T02:31:23.042Z,54.18
2022-08-23T02:32:23.024Z,54.22
2022-08-23T02:33:23.046Z,54.35
2022-08-23T02:34:23.044Z,54.45
2022-08-23T02:37:23.104Z,54.46
2022-08-23T02:39:23.047Z,54.45
2022-08-23T02:42:23.083Z,54.42
2022-08-23T02:45:23.066Z,54.55
2022-08-23T02:46:23.076Z,54.51
2022-08-23T02:47:23.083Z,54.49
2022-08-23T02:48:23.077Z,54.55
2022-08-23T02:49:23.089Z,54.55
2022-08-23T02:50:23.121Z,54.53
2022-08-23T02:51:23.079Z,54.57
2022-08-23T02:52:23.111Z,54.79
2022-08-23T02:53:23.095Z,54.79
2022-08-23T02:54:23.099Z,54.86
2022-08-23T02:55:23.098Z,54.97
2022-08-23T02:56:23.099Z,55.00
2022-08-23T02:57:23.094Z,55.04
2022-08-23T02:58:23.110Z,55.14
2022-08-23T02:59:23.102Z,55.20
2022-08-23T03:00:23.138Z,55.24
2022-08-23T03:02:23.165Z,55.33
2022-08-23T03:07:23.137Z,55.54
2022-08-23T03:09:23.137Z,55.48
2022-08-23T03:10:23.138Z,55.53
2022-08-23T03:12:23.140Z,55.57
2022-08-23T03:13:23.134Z,55.53
2022-08-23T03:14:23.161Z,55.55
2022-08-23T03:15:23.148Z,55.57
2022-08-23T03:16:23.168Z,55.59
2022-08-23T03:17:23.151Z,55.65
2022-08-23T03:18:23.159Z,55.69
2022-08-23T03:19:23.158Z,55.76
2022-08-23T03:20:23.174Z,55.84
2022-08-23T03:21:23.182Z,55.92
2022-08-23T03:22:23.158Z,55.92
2022-08-23T03:23:23.169Z,55.96
2022-08-23T03:24:23.164Z,56.10
2022-08-23T03:25:23.161Z,56.22
2022-08-23T03:26:23.176Z,56.24
2022-08-23T03:27:23.181Z,56.30
2022-08-23T03:28:23.182Z,56.35
2022-08-23T03:29:23.189Z,56.53
2022-08-23T03:31:23.194Z,56.62
2022-08-23T03:32:23.198Z,56.59
2022-08-23T03:33:23.205Z,56.55
2022-08-23T03:34:23.200Z,56.67
2022-08-23T03:35:23.194Z,56.73
2022-08-23T03:36:28.279Z,56.76
2022-08-23T03:37:23.199Z,56.73
2022-08-23T03:38:23.207Z,56.78
2022-08-23T03:39:23.205Z,56.82
2022-08-23T03:40:23.299Z,56.90
2022-08-23T03:41:23.210Z,56.86
2022-08-23T03:42:24.023Z,56.80
2022-08-23T03:43:23.217Z,56.85
2022-08-23T03:45:23.226Z,57.00
2022-08-23T03:47:23.869Z,57.02
2022-08-23T03:48:23.236Z,57.07
2022-08-23T03:49:23.229Z,57.04
2022-08-23T03:51:23.245Z,56.96
2022-08-23T03:52:23.241Z,56.85
2022-08-23T03:54:23.300Z,56.96
2022-08-23T03:56:23.254Z,57.08
2022-08-23T03:59:23.288Z,57.14
2022-08-23T04:00:23.292Z,57.08
2022-08-23T04:01:28.343Z,57.03
2022-08-23T04:02:23.270Z,57.08
2022-08-23T04:05:23.290Z,57.20
2022-08-23T04:09:23.290Z,57.09
2022-08-23T04:10:23.315Z,57.11
2022-08-23T04:11:23.303Z,57.14
2022-08-23T04:12:23.315Z,57.15
2022-08-23T04:14:23.311Z,57.33
2022-08-23T04:15:23.305Z,57.36
2022-08-23T04:16:23.308Z,57.45
2022-08-23T04:17:23.315Z,57.41
2022-08-23T04:18:23.321Z,57.51
2022-08-23T04:19:23.317Z,57.53
2022-08-23T04:21:23.330Z,57.57
2022-08-23T04:22:23.314Z,57.57
2022-08-23T04:23:23.333Z,57.64
2022-08-23T04:24:23.339Z,57.58
2022-08-23T04:25:34.909Z,57.63
2022-08-23T04:26:27.193Z,57.44
2022-08-23T04:29:33.943Z,57.29
2022-08-23T04:31:23.343Z,57.32
2022-08-23T04:32:28.116Z,57.32
2022-08-23T04:33:23.344Z,57.58
2022-08-23T04:34:23.340Z,57.61
2022-08-23T04:35:23.357Z,57.65
2022-08-23T04:38:24.844Z,57.76
2022-08-23T04:39:23.366Z,57.85
2022-08-23T04:40:23.440Z,57.86
2022-08-23T04:45:23.382Z,58.04
2022-08-23T04:46:23.384Z,58.04
2022-08-23T04:54:23.467Z,58.18
2022-08-23T04:59:23.413Z,58.13
2022-08-23T05:00:23.414Z,58.11
2022-08-23T05:01:23.430Z,58.05
2022-08-23T05:03:23.417Z,58.10
2022-08-23T05:05:23.451Z,58.19
2022-08-23T05:06:23.439Z,58.22
2022-08-23T05:08:23.455Z,58.21
2022-08-23T05:14:23.453Z,58.10
2022-08-23T05:15:23.438Z,58.08
2022-08-23T05:16:23.467Z,58.09
2022-08-23T05:19:23.456Z,58.10
2022-08-23T05:22:23.479Z,58.13
2022-08-23T05:23:29.336Z,58.11
2022-08-23T05:24:23.493Z,58.09
2022-08-23T05:25:23.486Z,58.08
2022-08-23T05:26:23.484Z,58.06
2022-08-23T05:27:23.475Z,58.05
2022-08-23T05:28:23.481Z,58.05
2022-08-23T05:29:23.483Z,58.00
2022-08-23T05:30:23.483Z,57.97
2022-08-23T05:31:23.493Z,57.90
2022-08-23T05:32:23.495Z,57.83
2022-08-23T05:33:23.507Z,57.76
2022-08-23T05:34:23.512Z,57.68
2022-08-23T05:35:23.497Z,57.65
2022-08-23T05:36:23.508Z,57.57
2022-08-23T05:37:23.518Z,57.49
2022-08-23T05:38:23.517Z,57.43
2022-08-23T05:39:30.363Z,57.34
2022-08-23T05:40:23.562Z,57.21
2022-08-23T05:41:37.940Z,57.06
2022-08-23T05:42:23.519Z,57.02
2022-08-23T05:43:23.524Z,56.98
2022-08-23T05:44:23.544Z,56.90
2022-08-23T05:45:23.522Z,56.79
2022-08-23T05:46:28.303Z,56.71
2022-08-23T05:47:24.979Z,56.54
2022-08-23T05:48:23.554Z,56.46
2022-08-23T05:49:23.540Z,56.35
2022-08-23T05:50:23.540Z,56.30
2022-08-23T05:51:23.564Z,56.23
2022-08-23T05:52:23.539Z,56.05
2022-08-23T05:53:23.548Z,55.93
2022-08-23T05:54:23.565Z,55.84
2022-08-23T05:55:23.625Z,55.80
2022-08-23T05:56:23.593Z,55.71
2022-08-23T05:57:23.582Z,55.71
2022-08-23T05:58:23.559Z,55.57
2022-08-23T05:59:23.573Z,55.48
2022-08-23T06:00:23.567Z,55.31
2022-08-23T06:01:23.637Z,55.31
2022-08-23T06:02:23.567Z,55.31
2022-08-23T06:03:23.565Z,55.22
2022-08-23T06:04:23.578Z,55.13
2022-08-23T06:05:23.584Z,55.04
2022-08-23T06:06:23.587Z,55.06
2022-08-23T06:07:23.589Z,54.92
2022-08-23T06:08:23.585Z,54.83
2022-08-23T06:09:23.596Z,54.72
2022-08-23T06:10:23.595Z,54.57
2022-08-23T06:11:23.609Z,54.47
2022-08-23T06:12:23.593Z,54.30
2022-08-23T06:13:23.600Z,54.16
2022-08-23T06:14:23.697Z,54.08
2022-08-23T06:15:23.615Z,53.75
2022-08-23T06:16:23.621Z,53.55
2022-08-23T06:17:23.620Z,53.41
2022-08-23T06:18:23.615Z,53.18
2022-08-23T06:19:23.645Z,53.03
2022-08-23T06:20:23.659Z,53.03
2022-08-23T06:21:23.618Z,53.08
2022-08-23T06:22:23.622Z,53.00
2022-08-23T06:23:23.640Z,52.92
2022-08-23T06:24:23.628Z,52.92
2022-08-23T06:25:23.640Z,52.89
2022-08-23T06:26:23.623Z,52.90
2022-08-23T06:27:23.626Z,52.50
2022-08-23T06:28:25.513Z,52.49
2022-08-23T06:29:23.689Z,52.45
2022-08-23T06:30:23.639Z,52.32
2022-08-23T06:31:23.681Z,52.19
2022-08-23T06:32:23.692Z,52.04
2022-08-23T06:33:23.733Z,52.07
2022-08-23T06:34:23.645Z,51.97
2022-08-23T06:35:38.344Z,52.00
2022-08-23T06:36:23.673Z,52.01
2022-08-23T06:37:23.661Z,51.76
2022-08-23T06:39:23.669Z,51.36
2022-08-23T06:40:23.733Z,51.35
2022-08-23T06:41:23.674Z,51.24
2022-08-23T06:42:37.439Z,50.82
2022-08-23T06:43:23.691Z,50.77
2022-08-23T06:44:23.668Z,50.83
2022-08-23T06:45:33.798Z,50.84
2022-08-23T06:46:23.764Z,50.37
2022-08-23T06:47:23.783Z,50.30
2022-08-23T06:48:23.680Z,50.15
2022-08-23T06:49:23.701Z,50.12
2022-08-23T06:50:23.703Z,49.76
2022-08-23T06:51:23.697Z,49.74
2022-08-23T06:52:23.705Z,49.56
2022-08-23T06:53:23.707Z,49.30
2022-08-23T06:54:23.717Z,48.97
2022-08-23T06:55:23.706Z,48.65
2022-08-23T06:56:23.714Z,48.48
2022-08-23T06:57:23.720Z,48.25
2022-08-23T06:58:23.729Z,47.87
2022-08-23T06:59:23.714Z,47.39
2022-08-23T07:00:23.730Z,47.48
2022-08-23T07:01:44.630Z,47.47
2022-08-23T07:02:23.850Z,47.28
2022-08-23T07:03:23.717Z,46.68
2022-08-23T07:05:23.747Z,46.97
2022-08-23T07:06:23.739Z,47.02
2022-08-23T07:07:23.767Z,46.68
2022-08-23T07:08:23.770Z,46.40
2022-08-23T07:09:23.757Z,45.55
2022-08-23T07:10:23.728Z,46.43
2022-08-23T07:11:23.750Z,46.10
2022-08-23T07:12:23.773Z,45.81
2022-08-23T07:13:23.750Z,45.89
2022-08-23T07:14:23.758Z,45.32
2022-08-23T07:15:23.744Z,44.69
2022-08-23T07:16:23.826Z,44.07
2022-08-23T07:17:23.776Z,44.15
2022-08-23T07:18:23.771Z,44.09
2022-08-23T07:19:28.868Z,43.90
2022-08-23T07:20:23.762Z,43.16
2022-08-23T07:21:23.776Z,42.73
2022-08-23T07:22:23.786Z,42.37
2022-08-23T07:23:23.776Z,41.81
2022-08-23T07:24:23.773Z,41.41
2022-08-23T07:25:23.793Z,40.95
2022-08-23T07:26:23.793Z,40.57
2022-08-23T07:27:23.807Z,40.73
2022-08-23T07:28:23.786Z,40.28
2022-08-23T07:29:23.781Z,40.51
2022-08-23T07:30:23.903Z,40.34
2022-08-23T07:31:23.879Z,40.51
2022-08-23T07:33:23.805Z,40.21
2022-08-23T07:34:23.805Z,39.88
2022-08-23T07:35:23.811Z,40.50
2022-08-23T07:36:23.840Z,40.38
2022-08-23T07:37:23.822Z,40.38
2022-08-23T07:38:23.829Z,40.38
2022-08-23T07:39:23.833Z,40.13
2022-08-23T07:40:23.923Z,39.69
2022-08-23T07:41:23.839Z,39.50
2022-08-23T07:42:24.359Z,38.99
2022-08-23T07:43:23.837Z,39.00
2022-08-23T07:44:27.234Z,38.68
2022-08-23T07:45:23.933Z,38.55
2022-08-23T07:46:23.878Z,38.54
2022-08-23T07:47:23.850Z,38.29
2022-08-23T07:48:50.211Z,37.81
2022-08-23T07:49:23.857Z,37.51
2022-08-23T07:50:23.858Z,36.87
2022-08-23T07:51:23.849Z,37.61
2022-08-23T07:52:23.874Z,37.92
2022-08-23T07:53:37.337Z,37.60
2022-08-23T07:54:23.878Z,37.36
2022-08-23T07:55:23.885Z,37.43
2022-08-23T07:56:23.863Z,36.97
2022-08-23T07:57:23.871Z,36.22
2022-08-23T07:58:23.899Z,35.76
2022-08-23T07:59:23.883Z,35.76
2022-08-23T08:00:23.891Z,35.19
2022-08-23T08:01:23.920Z,35.69
2022-08-23T08:02:23.958Z,35.80
2022-08-23T08:03:23.879Z,35.80
2022-08-23T08:04:23.904Z,35.92
2022-08-23T08:05:23.886Z,35.47
2022-08-23T08:06:23.901Z,35.53
2022-08-23T08:07:23.899Z,34.32
2022-08-23T08:08:23.911Z,34.66
2022-08-23T08:09:23.917Z,35.53
2022-08-23T08:10:23.903Z,35.63
2022-08-23T08:11:23.918Z,35.56
2022-08-23T08:12:23.919Z,35.49
2022-08-23T08:13:23.895Z,35.91
2022-08-23T08:14:23.918Z,35.71
2022-08-23T08:15:23.914Z,35.21
2022-08-23T08:16:24.038Z,34.72
2022-08-23T08:17:27.416Z,34.68
2022-08-23T08:18:23.937Z,34.41
2022-08-23T08:19:23.937Z,34.41
2022-08-23T08:20:23.928Z,34.28
2022-08-23T08:21:23.929Z,33.86
2022-08-23T08:22:23.933Z,33.54
2022-08-23T08:23:23.951Z,33.34
2022-08-23T08:24:23.956Z,33.56
2022-08-23T08:25:23.931Z,33.56
2022-08-23T08:26:23.963Z,33.29
2022-08-23T08:27:23.955Z,32.87
2022-08-23T08:28:23.986Z,32.16
2022-08-23T08:29:25.068Z,31.92
2022-08-23T08:30:23.969Z,31.92
2022-08-23T08:31:23.975Z,33.35
2022-08-23T08:32:23.984Z,33.26
2022-08-23T08:33:24.520Z,33.11
2022-08-23T08:34:23.950Z,32.97
2022-08-23T08:35:23.956Z,32.79
2022-08-23T08:36:24.938Z,32.78
2022-08-23T08:37:23.969Z,32.55
2022-08-23T08:38:23.973Z,32.91
2022-08-23T08:39:24.005Z,33.87
2022-08-23T08:40:23.996Z,33.87
2022-08-23T08:41:23.998Z,33.57
2022-08-23T08:42:23.982Z,33.20
2022-08-23T08:43:23.973Z,33.37
2022-08-23T08:44:23.994Z,33.32
2022-08-23T08:45:23.997Z,32.47
2022-08-23T08:46:24.080Z,32.34
2022-08-23T08:47:24.004Z,31.81
2022-08-23T08:48:23.995Z,31.82
2022-08-23T08:49:24.012Z,31.55
2022-08-23T08:50:23.994Z,31.90
2022-08-23T08:51:24.029Z,31.79
2022-08-23T08:52:24.052Z,31.28
2022-08-23T08:53:24.008Z,31.28
2022-08-23T08:54:23.998Z,30.83
2022-08-23T08:55:24.024Z,31.00
2022-08-23T08:56:24.022Z,31.34
2022-08-23T08:57:27.308Z,31.27
2022-08-23T08:58:24.034Z,31.52
2022-08-23T08:59:24.054Z,31.51
2022-08-23T09:00:24.041Z,31.27
2022-08-23T09:01:24.052Z,30.78
2022-08-23T09:02:32.637Z,30.00
2022-08-23T09:03:24.224Z,30.30
2022-08-23T09:04:24.036Z,30.30
2022-08-23T09:05:24.059Z,30.14
2022-08-23T09:06:24.045Z,30.32
2022-08-23T09:07:26.858Z,30.10
2022-08-23T09:08:24.077Z,30.07
2022-08-23T09:09:24.081Z,30.31
2022-08-23T09:11:24.088Z,31.07
2022-08-23T09:12:24.087Z,31.07
2022-08-23T09:13:24.089Z,30.26
2022-08-23T09:14:24.077Z,30.26
2022-08-23T09:15:24.104Z,29.88
2022-08-23T09:16:24.075Z,29.67
2022-08-23T09:17:24.099Z,29.58
2022-08-23T09:18:24.087Z,28.90
2022-08-23T09:19:25.187Z,29.79
2022-08-23T09:20:24.086Z,29.97
2022-08-23T09:21:24.102Z,29.83
2022-08-23T09:22:24.103Z,29.21
2022-08-23T09:23:24.092Z,28.93
2022-08-23T09:24:24.101Z,29.63
2022-08-23T09:25:24.128Z,29.60
2022-08-23T09:26:24.121Z,29.66
2022-08-23T09:27:24.114Z,29.71
2022-08-23T09:28:24.111Z,28.66
2022-08-23T09:29:24.109Z,28.75
2022-08-23T09:30:24.126Z,29.01
2022-08-23T09:31:24.137Z,28.30
2022-08-23T09:32:24.130Z,28.20
2022-08-23T09:33:26.127Z,27.68
2022-08-23T09:34:24.135Z,27.68
2022-08-23T09:35:24.138Z,27.49
2022-08-23T09:36:24.125Z,27.51
2022-08-23T09:37:24.144Z,28.26
2022-08-23T09:38:24.159Z,28.41
2022-08-23T09:39:24.149Z,27.67
2022-08-23T09:40:24.302Z,28.33
2022-08-23T09:41:24.145Z,27.86
2022-08-23T09:42:24.151Z,28.22
2022-08-23T09:43:24.136Z,28.00
2022-08-23T09:44:24.152Z,27.83
2022-08-23T09:45:24.155Z,27.45
2022-08-23T09:46:24.278Z,27.41
2022-08-23T09:47:24.175Z,27.85
2022-08-23T09:48:28.122Z,27.88
2022-08-23T09:49:24.178Z,27.24
2022-08-23T09:50:24.197Z,27.37
2022-08-23T09:51:24.161Z,27.63
2022-08-23T09:52:24.176Z,28.02
2022-08-23T09:53:24.186Z,27.75
2022-08-23T09:54:24.185Z,27.02
2022-08-23T09:55:24.208Z,26.53
2022-08-23T09:56:24.181Z,26.80
2022-08-23T09:57:24.190Z,26.78
2022-08-23T09:58:24.201Z,26.77
2022-08-23T09:59:26.624Z,26.48
2022-08-23T10:00:24.195Z,25.76
2022-08-23T10:01:24.232Z,26.29
2022-08-23T10:02:24.189Z,26.92
2022-08-23T10:03:24.205Z,26.50
2022-08-23T10:04:24.271Z,25.87
2022-08-23T10:05:24.205Z,25.79
2022-08-23T10:06:24.213Z,26.27
2022-08-23T10:07:24.208Z,26.68
2022-08-23T10:08:24.214Z,27.24
2022-08-23T10:09:24.247Z,27.33
2022-08-23T10:10:24.256Z,27.24
2022-08-23T10:11:24.241Z,27.14
2022-08-23T10:12:24.221Z,27.45
2022-08-23T10:13:24.230Z,26.88
2022-08-23T10:14:25.934Z,26.74
2022-08-23T10:15:24.250Z,26.88
2022-08-23T10:16:24.301Z,26.51
2022-08-23T10:17:24.236Z,26.82
2022-08-23T10:18:24.261Z,27.39
2022-08-23T10:19:24.245Z,27.83
2022-08-23T10:20:24.261Z,27.52
2022-08-23T10:21:24.421Z,25.98
2022-08-23T10:22:24.245Z,24.94
2022-08-23T10:23:24.270Z,25.32
2022-08-23T10:24:24.264Z,25.37
2022-08-23T10:25:24.261Z,25.25
2022-08-23T10:26:24.280Z,25.11
2022-08-23T10:27:24.260Z,24.24
2022-08-23T10:28:24.287Z,24.43
2022-08-23T10:29:24.283Z,24.52
2022-08-23T10:30:24.313Z,24.67
2022-08-23T10:31:24.348Z,24.59
2022-08-23T10:33:24.285Z,24.47
2022-08-23T10:34:24.279Z,23.77
2022-08-23T10:36:24.309Z,24.05
2022-08-23T10:37:24.302Z,24.26
2022-08-23T10:39:24.302Z,24.92
2022-08-23T10:40:24.344Z,24.68
2022-08-23T10:41:24.304Z,24.42
2022-08-23T10:42:24.320Z,24.08
2022-08-23T10:44:24.319Z,24.20
2022-08-23T10:45:24.315Z,24.17
2022-08-23T10:46:24.407Z,24.05
2022-08-23T10:47:24.328Z,24.54
2022-08-23T10:48:24.333Z,24.08
2022-08-23T10:49:24.310Z,24.28
2022-08-23T10:50:24.332Z,23.87
2022-08-23T10:51:31.676Z,23.69
2022-08-23T10:52:24.332Z,23.61
2022-08-23T10:53:24.334Z,23.39
2022-08-23T10:54:24.342Z,23.58
2022-08-23T10:55:24.357Z,23.31
2022-08-23T10:56:24.372Z,23.50
2022-08-23T10:57:24.342Z,23.50
2022-08-23T10:59:24.373Z,23.12
2022-08-23T11:00:24.352Z,23.17
2022-08-23T11:01:24.437Z,23.27
2022-08-23T11:02:24.400Z,23.26
2022-08-23T11:03:28.677Z,23.40
2022-08-23T11:04:24.358Z,23.29
2022-08-23T11:05:24.363Z,23.47
2022-08-23T11:06:24.359Z,23.12
2022-08-23T11:07:24.372Z,22.68
2022-08-23T11:08:24.367Z,22.84
2022-08-23T11:09:25.819Z,22.63
2022-08-23T11:10:24.392Z,22.61
2022-08-23T11:11:24.388Z,22.69
2022-08-23T11:12:24.385Z,22.67
2022-08-23T11:13:24.394Z,23.22
2022-08-23T11:14:24.403Z,23.33
2022-08-23T11:15:24.427Z,23.23
2022-08-23T11:16:24.395Z,23.23
2022-08-23T11:17:24.404Z,23.16
2022-08-23T11:18:24.412Z,23.31
2022-08-23T11:19:24.399Z,23.12
2022-08-23T11:20:24.439Z,23.32
2022-08-23T11:21:24.404Z,23.24
2022-08-23T11:22:24.422Z,23.43
2022-08-23T11:23:24.423Z,23.97
2022-08-23T11:24:24.415Z,23.71
2022-08-23T11:25:24.419Z,23.64
2022-08-23T11:26:24.444Z,23.07
2022-08-23T11:27:24.430Z,22.95
2022-08-23T11:28:24.434Z,23.14
2022-08-23T11:29:24.454Z,23.59
2022-08-23T11:30:24.434Z,23.67
2022-08-23T11:31:24.492Z,23.90
2022-08-23T11:32:28.085Z,23.90
2022-08-23T11:33:24.454Z,23.78
2022-08-23T11:34:29.510Z,24.01
2022-08-23T11:35:24.438Z,24.21
2022-08-23T11:36:24.467Z,24.34
2022-08-23T11:37:24.456Z,24.34
2022-08-23T11:38:24.861Z,24.56
2022-08-23T11:39:25.463Z,24.62
2022-08-23T11:40:24.515Z,24.69
2022-08-23T11:41:24.465Z,24.34
2022-08-23T11:42:24.469Z,23.89
2022-08-23T11:43:24.476Z,24.30
2022-08-23T11:45:24.481Z,24.33
2022-08-23T11:46:24.551Z,24.62
2022-08-23T11:47:24.489Z,24.56
2022-08-23T11:48:24.488Z,25.27
2022-08-23T11:49:24.513Z,25.27
2022-08-23T11:50:24.514Z,25.10
2022-08-23T11:51:24.484Z,24.72
2022-08-23T11:52:24.497Z,24.65
2022-08-23T11:53:24.503Z,25.33
2022-08-23T11:54:24.519Z,24.98
2022-08-23T11:55:24.492Z,24.49
2022-08-23T11:56:24.508Z,24.79
2022-08-23T11:57:24.553Z,25.09
2022-08-23T11:58:24.520Z,24.79
2022-08-23T11:59:24.514Z,24.94
2022-08-23T12:01:24.527Z,24.47
2022-08-23T12:02:24.601Z,25.01
2022-08-23T12:03:24.674Z,25.05
2022-08-23T12:04:24.511Z,25.27
2022-08-23T12:05:24.520Z,24.97
2022-08-23T12:06:24.547Z,24.15
2022-08-23T12:07:24.555Z,24.42
2022-08-23T12:09:24.542Z,23.79
2022-08-23T12:10:24.535Z,23.65
2022-08-23T12:11:24.546Z,23.59
2022-08-23T12:12:24.551Z,23.55
2022-08-23T12:13:24.547Z,23.46
2022-08-23T12:14:24.548Z,23.35
2022-08-23T12:16:24.599Z,24.08
2022-08-23T12:17:24.922Z,23.45
2022-08-23T12:19:24.557Z,24.12
2022-08-23T12:20:24.565Z,23.96
2022-08-23T12:21:24.563Z,23.26
2022-08-23T12:22:24.574Z,23.08
2022-08-23T12:23:24.571Z,23.12
2022-08-23T12:24:24.591Z,23.73
2022-08-23T12:25:24.598Z,23.82
2022-08-23T12:26:24.586Z,23.97
2022-08-23T12:27:24.581Z,23.96
2022-08-23T12:28:24.596Z,23.80
2022-08-23T12:29:24.587Z,23.94
2022-08-23T12:30:24.603Z,24.09
2022-08-23T12:31:24.706Z,24.36
2022-08-23T12:32:24.596Z,24.19
2022-08-23T12:33:24.608Z,23.59
2022-08-23T12:34:24.610Z,23.78
2022-08-23T12:35:24.617Z,23.76
2022-08-23T12:36:24.611Z,24.00
2022-08-23T12:37:24.618Z,23.41
2022-08-23T12:39:24.638Z,23.53
2022-08-23T12:40:24.666Z,23.68
2022-08-23T12:41:24.644Z,23.68
2022-08-23T12:42:24.621Z,23.69
2022-08-23T12:43:24.625Z,23.93
2022-08-23T12:44:24.650Z,23.68
2022-08-23T12:45:24.637Z,24.13
2022-08-23T12:46:24.856Z,23.83
2022-08-23T12:47:24.646Z,23.38
2022-08-23T12:48:24.641Z,23.07
2022-08-23T12:50:26.109Z,22.80
2022-08-23T12:51:24.649Z,23.21
2022-08-23T12:52:24.651Z,23.13
2022-08-23T12:53:24.656Z,23.21
2022-08-23T12:55:24.669Z,22.83
2022-08-23T12:56:31.360Z,23.14
2022-08-23T12:57:24.658Z,23.15
2022-08-23T12:58:27.709Z,23.35
2022-08-23T12:59:24.694Z,23.97
2022-08-23T13:00:24.674Z,23.90
2022-08-23T13:01:24.728Z,24.12
2022-08-23T13:02:24.768Z,24.41
2022-08-23T13:03:24.696Z,24.20
2022-08-23T13:04:24.695Z,24.29
2022-08-23T13:05:24.681Z,24.33
2022-08-23T13:06:24.701Z,24.22
2022-08-23T13:07:24.702Z,24.16
2022-08-23T13:08:33.577Z,24.33
2022-08-23T13:09:24.721Z,24.95
2022-08-23T13:10:24.685Z,24.03
2022-08-23T13:11:24.721Z,24.23
2022-08-23T13:12:24.692Z,23.90
2022-08-23T13:14:24.718Z,23.47
2022-08-23T13:15:24.745Z,23.55
2022-08-23T13:16:27.139Z,23.22
2022-08-23T13:17:24.710Z,23.51
2022-08-23T13:18:24.714Z,23.63
2022-08-23T13:19:24.724Z,23.17
2022-08-23T13:20:24.743Z,23.51
2022-08-23T13:22:24.757Z,23.41
2022-08-23T13:23:24.747Z,23.02
2022-08-23T13:24:24.756Z,22.88
2022-08-23T13:25:29.158Z,22.57
2022-08-23T13:26:24.744Z,22.75
2022-08-23T13:27:24.765Z,22.28
2022-08-23T13:28:24.742Z,22.48
2022-08-23T13:29:24.758Z,22.76
2022-08-23T13:30:24.771Z,23.45
2022-08-23T13:31:24.804Z,23.51
2022-08-23T13:32:24.752Z,23.73
2022-08-23T13:33:24.748Z,23.79
2022-08-23T13:34:24.758Z,23.50
2022-08-23T13:36:24.778Z,23.18
2022-08-23T13:37:24.784Z,23.10
2022-08-23T13:38:24.801Z,23.70
2022-08-23T13:39:24.782Z,23.70
2022-08-23T13:40:24.828Z,23.02
2022-08-23T13:42:24.804Z,22.94
2022-08-23T13:43:24.774Z,22.99
2022-08-23T13:44:24.790Z,23.11
2022-08-23T13:45:24.784Z,23.76
2022-08-23T13:46:25.089Z,23.37
2022-08-23T13:47:24.818Z,23.28
2022-08-23T13:48:24.805Z,23.97
2022-08-23T13:49:24.818Z,23.10
2022-08-23T13:50:24.828Z,23.01
2022-08-23T13:51:24.813Z,22.99
2022-08-23T13:52:56.643Z,23.03
2022-08-23T13:53:24.904Z,23.29
2022-08-23T13:54:24.811Z,23.70
2022-08-23T13:55:24.829Z,23.78
2022-08-23T13:56:24.829Z,23.58
2022-08-23T13:57:28.433Z,23.67
2022-08-23T13:58:24.831Z,23.67
2022-08-23T14:00:24.846Z,23.71
2022-08-23T14:01:24.884Z,23.66
2022-08-23T14:02:24.856Z,23.88
2022-08-23T14:03:24.850Z,23.87
2022-08-23T14:04:24.825Z,23.19
2022-08-23T14:05:24.873Z,22.85
2022-08-23T14:06:24.876Z,23.29
2022-08-23T14:07:24.856Z,23.45
2022-08-23T14:08:24.859Z,23.76
2022-08-23T14:09:24.896Z,24.14
2022-08-23T14:10:24.877Z,24.14
2022-08-23T14:11:24.870Z,24.20
2022-08-23T14:12:24.893Z,23.97
2022-08-23T14:14:24.873Z,23.95
2022-08-23T14:15:56.402Z,23.99
2022-08-23T14:16:35.241Z,23.81
2022-08-23T14:17:24.935Z,24.04
2022-08-23T14:18:24.905Z,23.57
2022-08-23T14:20:31.039Z,23.61
2022-08-23T14:20:33.642Z,23.61
2022-08-23T14:21:24.930Z,23.62
2022-08-23T14:22:24.900Z,23.62
2022-08-23T14:23:24.888Z,23.94
2022-08-23T14:24:26.932Z,24.26
2022-08-23T14:25:24.909Z,24.83
2022-08-23T14:26:24.907Z,24.83
2022-08-23T14:27:24.921Z,24.69
2022-08-23T14:28:24.902Z,24.14
2022-08-23T14:29:24.919Z,24.16
2022-08-23T14:30:24.914Z,24.12
2022-08-23T14:33:24.937Z,24.49
2022-08-23T14:34:24.936Z,23.98
2022-08-23T14:35:24.994Z,23.97
2022-08-23T14:36:26.401Z,23.97
2022-08-23T14:38:24.944Z,23.47
2022-08-23T14:39:24.942Z,23.52
2022-08-23T14:40:24.998Z,23.62
2022-08-23T14:41:24.943Z,23.83
2022-08-23T14:42:24.957Z,24.07
2022-08-23T14:43:25.765Z,23.82
2022-08-23T14:44:27.895Z,23.90
2022-08-23T14:45:24.957Z,24.16
2022-08-23T14:46:25.037Z,24.06
2022-08-23T14:47:24.954Z,24.08
2022-08-23T14:48:24.958Z,24.06
2022-08-23T14:49:24.971Z,23.94
2022-08-23T14:50:24.972Z,23.82
2022-08-23T14:51:24.982Z,23.46
2022-08-23T14:52:24.957Z,23.36
2022-08-23T14:53:24.984Z,22.90
2022-08-23T14:54:24.978Z,22.75
2022-08-23T14:55:25.375Z,23.24
2022-08-23T14:56:24.985Z,23.76
2022-08-23T14:57:24.990Z,23.85